sensor_id;sensor_type;location;lat;lon;timestamp;P1;durP1;ratioP1;P2;durP2;ratioP2
68126;SDS011;54931;52.098;21.006;2023-02-01T00:01:10;16.10;;;7.70;;
68126;SDS011;54931;52.098;21.006;2023-02-01T00:03:38;14.90;;;7.20;;
68126;SDS011;54931;52.098;21.006;2023-02-01T00:06:06;13.10;;;6.80;;
68126;SDS011;54931;52.098;21.006;2023-02-01T00:08:36;16.30;;;8.70;;
68126;SDS011;54931;52.098;21.006;2023-02-01T00:11:07;13.70;;;6.30;;
68126;SDS011;54931;52.098;21.006;2023-02-01T00:13:39;11.20;;;5.00;;
68126;SDS011;54931;52.098;21.006;2023-02-01T00:16:12;15.70;;;8.10;;
68126;SDS011;54931;52.098;21.006;2023-02-01T00:18:48;12.00;;;6.50;;
68126;SDS011;54931;52.098;21.006;2023-02-01T00:21:19;10.10;;;5.60;;
68126;SDS011;54931;52.098;21.006;2023-02-01T00:23:49;13.10;;;8.40;;
68126;SDS011;54931;52.098;21.006;2023-02-01T00:26:30;16.70;;;8.00;;
68126;SDS011;54931;52.098;21.006;2023-02-01T00:29:06;12.40;;;5.80;;
68126;SDS011;54931;52.098;21.006;2023-02-01T00:31:37;12.60;;;7.10;;
68126;SDS011;54931;52.098;21.006;2023-02-01T00:34:06;13.50;;;6.40;;
68126;SDS011;54931;52.098;21.006;2023-02-01T00:36:35;11.80;;;6.20;;
68126;SDS011;54931;52.098;21.006;2023-02-01T00:39:03;11.20;;;5.90;;
68126;SDS011;54931;52.098;21.006;2023-02-01T00:41:30;11.10;;;6.50;;
68126;SDS011;54931;52.098;21.006;2023-02-01T00:43:58;9.10;;;4.50;;
68126;SDS011;54931;52.098;21.006;2023-02-01T00:46:26;11.70;;;6.10;;
68126;SDS011;54931;52.098;21.006;2023-02-01T00:48:54;10.90;;;5.40;;
68126;SDS011;54931;52.098;21.006;2023-02-01T00:51:24;11.80;;;6.00;;
68126;SDS011;54931;52.098;21.006;2023-02-01T00:53:54;8.60;;;3.90;;
68126;SDS011;54931;52.098;21.006;2023-02-01T00:56:22;9.40;;;4.90;;
68126;SDS011;54931;52.098;21.006;2023-02-01T00:58:50;7.40;;;3.80;;
68126;SDS011;54931;52.098;21.006;2023-02-01T01:01:26;8.40;;;4.10;;
68126;SDS011;54931;52.098;21.006;2023-02-01T01:06:31;6.70;;;3.20;;
68126;SDS011;54931;52.098;21.006;2023-02-01T01:09:01;8.90;;;3.40;;
68126;SDS011;54931;52.098;21.006;2023-02-01T01:11:36;7.20;;;3.40;;
68126;SDS011;54931;52.098;21.006;2023-02-01T01:14:07;6.40;;;2.40;;
68126;SDS011;54931;52.098;21.006;2023-02-01T01:16:35;4.30;;;2.50;;
68126;SDS011;54931;52.098;21.006;2023-02-01T01:19:03;8.90;;;2.60;;
68126;SDS011;54931;52.098;21.006;2023-02-01T01:21:32;4.50;;;2.30;;
68126;SDS011;54931;52.098;21.006;2023-02-01T01:24:00;5.00;;;2.40;;
68126;SDS011;54931;52.098;21.006;2023-02-01T01:26:29;6.10;;;2.90;;
68126;SDS011;54931;52.098;21.006;2023-02-01T01:28:58;7.40;;;2.70;;
68126;SDS011;54931;52.098;21.006;2023-02-01T01:31:27;4.50;;;3.00;;
68126;SDS011;54931;52.098;21.006;2023-02-01T01:33:57;5.10;;;3.10;;
68126;SDS011;54931;52.098;21.006;2023-02-01T01:36:27;6.00;;;3.00;;
68126;SDS011;54931;52.098;21.006;2023-02-01T01:38:55;6.90;;;2.70;;
68126;SDS011;54931;52.098;21.006;2023-02-01T01:41:29;6.30;;;3.00;;
68126;SDS011;54931;52.098;21.006;2023-02-01T01:44:00;8.00;;;2.50;;
68126;SDS011;54931;52.098;21.006;2023-02-01T01:46:35;7.70;;;2.80;;
68126;SDS011;54931;52.098;21.006;2023-02-01T01:49:10;6.30;;;2.50;;
68126;SDS011;54931;52.098;21.006;2023-02-01T01:51:49;7.20;;;2.30;;
68126;SDS011;54931;52.098;21.006;2023-02-01T01:54:21;10.00;;;2.90;;
68126;SDS011;54931;52.098;21.006;2023-02-01T01:57:00;9.40;;;2.80;;
68126;SDS011;54931;52.098;21.006;2023-02-01T01:59:32;9.50;;;2.30;;
68126;SDS011;54931;52.098;21.006;2023-02-01T02:02:04;8.30;;;2.90;;
68126;SDS011;54931;52.098;21.006;2023-02-01T02:04:33;11.40;;;3.20;;
68126;SDS011;54931;52.098;21.006;2023-02-01T02:07:24;11.50;;;3.50;;
68126;SDS011;54931;52.098;21.006;2023-02-01T02:09:57;10.30;;;2.90;;
68126;SDS011;54931;52.098;21.006;2023-02-01T02:12:24;12.10;;;2.90;;
68126;SDS011;54931;52.098;21.006;2023-02-01T02:14:52;12.10;;;3.00;;
68126;SDS011;54931;52.098;21.006;2023-02-01T02:17:35;8.70;;;3.20;;
68126;SDS011;54931;52.098;21.006;2023-02-01T02:37:43;12.40;;;3.00;;
68126;SDS011;54931;52.098;21.006;2023-02-01T02:40:31;7.60;;;2.50;;
68126;SDS011;54931;52.098;21.006;2023-02-01T02:43:49;8.40;;;3.20;;
68126;SDS011;54931;52.098;21.006;2023-02-01T02:46:47;8.80;;;2.90;;
68126;SDS011;54931;52.098;21.006;2023-02-01T02:49:40;14.10;;;3.10;;
68126;SDS011;54931;52.098;21.006;2023-02-01T02:52:42;9.80;;;3.00;;
68126;SDS011;54931;52.098;21.006;2023-02-01T02:55:37;5.40;;;2.60;;
68126;SDS011;54931;52.098;21.006;2023-02-01T02:58:07;9.80;;;2.90;;
68126;SDS011;54931;52.098;21.006;2023-02-01T03:00:56;9.30;;;3.00;;
68126;SDS011;54931;52.098;21.006;2023-02-01T03:03:43;11.80;;;3.20;;
68126;SDS011;54931;52.098;21.006;2023-02-01T03:06:32;5.40;;;1.80;;
68126;SDS011;54931;52.098;21.006;2023-02-01T03:09:04;10.30;;;2.80;;
68126;SDS011;54931;52.098;21.006;2023-02-01T03:11:36;8.70;;;2.50;;
68126;SDS011;54931;52.098;21.006;2023-02-01T03:14:25;14.60;;;3.40;;
68126;SDS011;54931;52.098;21.006;2023-02-01T03:17:04;12.40;;;2.90;;
68126;SDS011;54931;52.098;21.006;2023-02-01T03:19:48;11.50;;;3.10;;
68126;SDS011;54931;52.098;21.006;2023-02-01T03:22:24;8.90;;;2.80;;
68126;SDS011;54931;52.098;21.006;2023-02-01T03:25:03;13.60;;;3.10;;
68126;SDS011;54931;52.098;21.006;2023-02-01T03:27:39;15.10;;;3.40;;
68126;SDS011;54931;52.098;21.006;2023-02-01T03:30:14;15.50;;;3.20;;
68126;SDS011;54931;52.098;21.006;2023-02-01T03:32:47;13.50;;;2.80;;
68126;SDS011;54931;52.098;21.006;2023-02-01T03:35:30;12.90;;;3.30;;
68126;SDS011;54931;52.098;21.006;2023-02-01T03:38:13;12.30;;;2.90;;
68126;SDS011;54931;52.098;21.006;2023-02-01T03:44:26;16.00;;;3.30;;
68126;SDS011;54931;52.098;21.006;2023-02-01T03:47:05;16.70;;;3.80;;
68126;SDS011;54931;52.098;21.006;2023-02-01T03:49:40;11.60;;;3.10;;
68126;SDS011;54931;52.098;21.006;2023-02-01T03:52:24;10.60;;;3.60;;
68126;SDS011;54931;52.098;21.006;2023-02-01T03:54:58;19.20;;;3.00;;
68126;SDS011;54931;52.098;21.006;2023-02-01T03:57:30;13.10;;;4.10;;
68126;SDS011;54931;52.098;21.006;2023-02-01T04:00:19;16.90;;;3.40;;
68126;SDS011;54931;52.098;21.006;2023-02-01T04:02:52;13.40;;;3.30;;
68126;SDS011;54931;52.098;21.006;2023-02-01T04:05:21;13.80;;;3.50;;
68126;SDS011;54931;52.098;21.006;2023-02-01T04:07:49;15.10;;;2.90;;
68126;SDS011;54931;52.098;21.006;2023-02-01T04:10:16;11.20;;;3.40;;
68126;SDS011;54931;52.098;21.006;2023-02-01T04:12:44;10.80;;;3.60;;
68126;SDS011;54931;52.098;21.006;2023-02-01T04:15:12;14.40;;;3.40;;
68126;SDS011;54931;52.098;21.006;2023-02-01T04:17:40;15.10;;;2.90;;
68126;SDS011;54931;52.098;21.006;2023-02-01T04:20:08;11.20;;;2.90;;
68126;SDS011;54931;52.098;21.006;2023-02-01T04:22:37;8.80;;;2.50;;
68126;SDS011;54931;52.098;21.006;2023-02-01T04:25:05;10.70;;;3.50;;
68126;SDS011;54931;52.098;21.006;2023-02-01T04:27:33;13.80;;;2.80;;
68126;SDS011;54931;52.098;21.006;2023-02-01T04:30:03;8.20;;;2.40;;
68126;SDS011;54931;52.098;21.006;2023-02-01T04:32:32;10.00;;;3.00;;
68126;SDS011;54931;52.098;21.006;2023-02-01T04:34:59;12.80;;;2.80;;
68126;SDS011;54931;52.098;21.006;2023-02-01T04:37:27;14.40;;;2.90;;
68126;SDS011;54931;52.098;21.006;2023-02-01T04:39:56;17.60;;;3.40;;
68126;SDS011;54931;52.098;21.006;2023-02-01T04:42:24;11.50;;;3.50;;
68126;SDS011;54931;52.098;21.006;2023-02-01T04:44:51;14.70;;;3.60;;
68126;SDS011;54931;52.098;21.006;2023-02-01T04:47:19;8.10;;;2.30;;
68126;SDS011;54931;52.098;21.006;2023-02-01T04:49:47;11.00;;;2.00;;
68126;SDS011;54931;52.098;21.006;2023-02-01T04:52:14;12.60;;;3.20;;
68126;SDS011;54931;52.098;21.006;2023-02-01T04:54:42;10.30;;;3.00;;
68126;SDS011;54931;52.098;21.006;2023-02-01T04:57:10;14.00;;;3.20;;
68126;SDS011;54931;52.098;21.006;2023-02-01T04:59:40;11.40;;;2.70;;
68126;SDS011;54931;52.098;21.006;2023-02-01T05:02:08;11.90;;;2.60;;
68126;SDS011;54931;52.098;21.006;2023-02-01T05:04:35;12.10;;;3.20;;
68126;SDS011;54931;52.098;21.006;2023-02-01T05:07:03;11.40;;;3.30;;
68126;SDS011;54931;52.098;21.006;2023-02-01T05:09:30;10.00;;;2.90;;
68126;SDS011;54931;52.098;21.006;2023-02-01T05:11:58;9.10;;;2.70;;
68126;SDS011;54931;52.098;21.006;2023-02-01T05:14:44;17.10;;;3.00;;
68126;SDS011;54931;52.098;21.006;2023-02-01T05:17:12;9.50;;;2.40;;
68126;SDS011;54931;52.098;21.006;2023-02-01T05:19:40;7.30;;;2.50;;
68126;SDS011;54931;52.098;21.006;2023-02-01T05:22:07;10.80;;;2.70;;
68126;SDS011;54931;52.098;21.006;2023-02-01T05:24:35;14.90;;;2.90;;
68126;SDS011;54931;52.098;21.006;2023-02-01T05:27:02;14.60;;;2.90;;
68126;SDS011;54931;52.098;21.006;2023-02-01T05:29:30;18.60;;;3.60;;
68126;SDS011;54931;52.098;21.006;2023-02-01T05:31:58;15.30;;;3.20;;
68126;SDS011;54931;52.098;21.006;2023-02-01T05:34:25;14.10;;;2.90;;
68126;SDS011;54931;52.098;21.006;2023-02-01T05:36:53;12.70;;;2.90;;
68126;SDS011;54931;52.098;21.006;2023-02-01T05:39:20;10.00;;;2.90;;
68126;SDS011;54931;52.098;21.006;2023-02-01T05:41:48;10.20;;;2.80;;
68126;SDS011;54931;52.098;21.006;2023-02-01T05:44:16;12.90;;;2.80;;
68126;SDS011;54931;52.098;21.006;2023-02-01T05:46:44;14.00;;;3.20;;
68126;SDS011;54931;52.098;21.006;2023-02-01T05:49:11;10.30;;;2.70;;
68126;SDS011;54931;52.098;21.006;2023-02-01T05:51:39;12.40;;;2.60;;
68126;SDS011;54931;52.098;21.006;2023-02-01T05:54:08;16.10;;;4.20;;
68126;SDS011;54931;52.098;21.006;2023-02-01T05:56:35;18.90;;;2.90;;
68126;SDS011;54931;52.098;21.006;2023-02-01T05:59:03;11.60;;;2.80;;
68126;SDS011;54931;52.098;21.006;2023-02-01T06:01:31;12.80;;;3.00;;
68126;SDS011;54931;52.098;21.006;2023-02-01T06:03:58;13.90;;;3.30;;
68126;SDS011;54931;52.098;21.006;2023-02-01T06:06:26;9.80;;;3.30;;
68126;SDS011;54931;52.098;21.006;2023-02-01T06:08:53;12.90;;;3.00;;
68126;SDS011;54931;52.098;21.006;2023-02-01T06:11:21;13.30;;;3.10;;
68126;SDS011;54931;52.098;21.006;2023-02-01T06:13:48;10.70;;;3.20;;
68126;SDS011;54931;52.098;21.006;2023-02-01T06:16:16;16.40;;;3.60;;
68126;SDS011;54931;52.098;21.006;2023-02-01T06:18:43;10.70;;;2.80;;
68126;SDS011;54931;52.098;21.006;2023-02-01T06:21:11;14.00;;;3.00;;
68126;SDS011;54931;52.098;21.006;2023-02-01T06:23:40;16.90;;;3.20;;
68126;SDS011;54931;52.098;21.006;2023-02-01T06:26:09;13.80;;;2.90;;
68126;SDS011;54931;52.098;21.006;2023-02-01T06:28:36;19.20;;;3.90;;
68126;SDS011;54931;52.098;21.006;2023-02-01T06:31:06;15.00;;;3.20;;
68126;SDS011;54931;52.098;21.006;2023-02-01T06:33:35;10.60;;;3.20;;
68126;SDS011;54931;52.098;21.006;2023-02-01T06:36:05;13.30;;;3.50;;
68126;SDS011;54931;52.098;21.006;2023-02-01T06:38:35;13.90;;;2.80;;
68126;SDS011;54931;52.098;21.006;2023-02-01T06:41:03;11.10;;;2.90;;
68126;SDS011;54931;52.098;21.006;2023-02-01T06:43:32;11.40;;;2.70;;
68126;SDS011;54931;52.098;21.006;2023-02-01T06:46:02;10.00;;;2.80;;
68126;SDS011;54931;52.098;21.006;2023-02-01T06:48:32;10.70;;;2.70;;
68126;SDS011;54931;52.098;21.006;2023-02-01T06:51:00;13.30;;;4.10;;
68126;SDS011;54931;52.098;21.006;2023-02-01T06:53:28;12.50;;;3.50;;
68126;SDS011;54931;52.098;21.006;2023-02-01T06:56:02;13.10;;;2.80;;
68126;SDS011;54931;52.098;21.006;2023-02-01T06:58:32;15.80;;;3.50;;
68126;SDS011;54931;52.098;21.006;2023-02-01T07:01:08;10.10;;;2.60;;
68126;SDS011;54931;52.098;21.006;2023-02-01T07:03:37;15.30;;;3.20;;
68126;SDS011;54931;52.098;21.006;2023-02-01T07:06:05;11.60;;;2.80;;
68126;SDS011;54931;52.098;21.006;2023-02-01T07:08:37;14.30;;;2.60;;
68126;SDS011;54931;52.098;21.006;2023-02-01T07:11:10;13.10;;;2.70;;
68126;SDS011;54931;52.098;21.006;2023-02-01T07:13:39;8.10;;;2.30;;
68126;SDS011;54931;52.098;21.006;2023-02-01T07:16:11;8.50;;;2.80;;
68126;SDS011;54931;52.098;21.006;2023-02-01T07:18:40;9.60;;;2.90;;
68126;SDS011;54931;52.098;21.006;2023-02-01T07:21:08;13.10;;;3.00;;
68126;SDS011;54931;52.098;21.006;2023-02-01T07:23:37;13.70;;;2.90;;
68126;SDS011;54931;52.098;21.006;2023-02-01T07:26:06;15.30;;;3.50;;
68126;SDS011;54931;52.098;21.006;2023-02-01T07:28:35;8.30;;;2.50;;
68126;SDS011;54931;52.098;21.006;2023-02-01T07:31:05;13.90;;;3.10;;
68126;SDS011;54931;52.098;21.006;2023-02-01T07:33:33;10.20;;;2.50;;
68126;SDS011;54931;52.098;21.006;2023-02-01T07:36:04;12.10;;;2.60;;
68126;SDS011;54931;52.098;21.006;2023-02-01T07:38:33;10.90;;;2.20;;
68126;SDS011;54931;52.098;21.006;2023-02-01T07:41:03;12.30;;;2.80;;
68126;SDS011;54931;52.098;21.006;2023-02-01T07:43:32;9.50;;;2.90;;
68126;SDS011;54931;52.098;21.006;2023-02-01T07:46:01;16.00;;;2.90;;
68126;SDS011;54931;52.098;21.006;2023-02-01T07:48:31;14.20;;;3.00;;
68126;SDS011;54931;52.098;21.006;2023-02-01T07:51:06;9.80;;;3.10;;
68126;SDS011;54931;52.098;21.006;2023-02-01T07:53:39;10.20;;;3.10;;
68126;SDS011;54931;52.098;21.006;2023-02-01T07:56:11;20.60;;;4.50;;
68126;SDS011;54931;52.098;21.006;2023-02-01T07:58:52;13.60;;;3.50;;
68126;SDS011;54931;52.098;21.006;2023-02-01T08:01:24;9.90;;;3.40;;
68126;SDS011;54931;52.098;21.006;2023-02-01T08:03:56;11.50;;;3.90;;
68126;SDS011;54931;52.098;21.006;2023-02-01T08:06:31;16.70;;;4.00;;
68126;SDS011;54931;52.098;21.006;2023-02-01T08:09:00;10.40;;;3.00;;
68126;SDS011;54931;52.098;21.006;2023-02-01T08:11:31;11.90;;;2.80;;
68126;SDS011;54931;52.098;21.006;2023-02-01T08:13:59;12.30;;;3.10;;
68126;SDS011;54931;52.098;21.006;2023-02-01T08:16:27;12.70;;;3.10;;
68126;SDS011;54931;52.098;21.006;2023-02-01T08:18:54;9.00;;;3.20;;
68126;SDS011;54931;52.098;21.006;2023-02-01T08:21:25;11.70;;;3.70;;
68126;SDS011;54931;52.098;21.006;2023-02-01T08:24:05;11.50;;;3.30;;
68126;SDS011;54931;52.098;21.006;2023-02-01T08:26:35;12.60;;;3.00;;
68126;SDS011;54931;52.098;21.006;2023-02-01T08:29:04;16.60;;;3.50;;
68126;SDS011;54931;52.098;21.006;2023-02-01T08:31:34;11.40;;;3.00;;
68126;SDS011;54931;52.098;21.006;2023-02-01T08:34:02;16.60;;;3.00;;
68126;SDS011;54931;52.098;21.006;2023-02-01T08:36:35;15.60;;;3.60;;
68126;SDS011;54931;52.098;21.006;2023-02-01T08:39:05;12.00;;;3.40;;
68126;SDS011;54931;52.098;21.006;2023-02-01T08:41:36;11.20;;;2.50;;
68126;SDS011;54931;52.098;21.006;2023-02-01T08:44:04;10.30;;;2.70;;
68126;SDS011;54931;52.098;21.006;2023-02-01T08:46:32;8.40;;;2.70;;
68126;SDS011;54931;52.098;21.006;2023-02-01T08:48:59;9.70;;;2.80;;
68126;SDS011;54931;52.098;21.006;2023-02-01T08:51:27;15.80;;;2.70;;
68126;SDS011;54931;52.098;21.006;2023-02-01T08:53:55;12.00;;;2.70;;
68126;SDS011;54931;52.098;21.006;2023-02-01T08:56:22;14.40;;;3.00;;
68126;SDS011;54931;52.098;21.006;2023-02-01T08:58:50;8.40;;;2.90;;
68126;SDS011;54931;52.098;21.006;2023-02-01T09:01:18;11.30;;;2.80;;
68126;SDS011;54931;52.098;21.006;2023-02-01T09:03:45;16.40;;;3.80;;
68126;SDS011;54931;52.098;21.006;2023-02-01T09:06:14;14.40;;;3.70;;
68126;SDS011;54931;52.098;21.006;2023-02-01T09:08:43;16.50;;;4.00;;
68126;SDS011;54931;52.098;21.006;2023-02-01T09:11:14;16.60;;;5.60;;
68126;SDS011;54931;52.098;21.006;2023-02-01T09:13:44;16.30;;;4.40;;
68126;SDS011;54931;52.098;21.006;2023-02-01T09:16:13;12.60;;;4.40;;
68126;SDS011;54931;52.098;21.006;2023-02-01T09:18:41;14.00;;;3.20;;
68126;SDS011;54931;52.098;21.006;2023-02-01T09:21:08;13.20;;;3.80;;
68126;SDS011;54931;52.098;21.006;2023-02-01T09:23:36;11.80;;;3.10;;
68126;SDS011;54931;52.098;21.006;2023-02-01T09:26:05;10.20;;;3.40;;
68126;SDS011;54931;52.098;21.006;2023-02-01T09:28:32;10.20;;;2.70;;
68126;SDS011;54931;52.098;21.006;2023-02-01T09:31:00;14.30;;;3.40;;
68126;SDS011;54931;52.098;21.006;2023-02-01T09:33:29;7.40;;;2.00;;
68126;SDS011;54931;52.098;21.006;2023-02-01T09:35:58;17.30;;;4.00;;
68126;SDS011;54931;52.098;21.006;2023-02-01T09:38:32;8.20;;;3.00;;
68126;SDS011;54931;52.098;21.006;2023-02-01T09:40:59;13.50;;;3.30;;
68126;SDS011;54931;52.098;21.006;2023-02-01T09:46:32;14.30;;;3.80;;
68126;SDS011;54931;52.098;21.006;2023-02-01T09:49:05;16.60;;;3.60;;
68126;SDS011;54931;52.098;21.006;2023-02-01T09:51:42;10.30;;;3.30;;
68126;SDS011;54931;52.098;21.006;2023-02-01T09:54:22;14.60;;;3.00;;
68126;SDS011;54931;52.098;21.006;2023-02-01T09:56:56;11.70;;;3.20;;
68126;SDS011;54931;52.098;21.006;2023-02-01T09:59:38;10.70;;;2.40;;
68126;SDS011;54931;52.098;21.006;2023-02-01T10:02:13;11.90;;;3.10;;
68126;SDS011;54931;52.098;21.006;2023-02-01T10:04:46;5.70;;;1.80;;
68126;SDS011;54931;52.098;21.006;2023-02-01T10:10:50;9.90;;;2.90;;
68126;SDS011;54931;52.098;21.006;2023-02-01T10:16:34;13.20;;;3.60;;
68126;SDS011;54931;52.098;21.006;2023-02-01T10:19:36;9.00;;;2.80;;
68126;SDS011;54931;52.098;21.006;2023-02-01T10:22:40;14.80;;;2.70;;
68126;SDS011;54931;52.098;21.006;2023-02-01T10:28:16;13.70;;;3.70;;
68126;SDS011;54931;52.098;21.006;2023-02-01T10:30:47;11.60;;;3.20;;
68126;SDS011;54931;52.098;21.006;2023-02-01T10:35:54;11.30;;;3.40;;
68126;SDS011;54931;52.098;21.006;2023-02-01T10:38:31;10.00;;;3.30;;
68126;SDS011;54931;52.098;21.006;2023-02-01T10:41:03;11.80;;;2.90;;
68126;SDS011;54931;52.098;21.006;2023-02-01T10:43:39;16.60;;;3.70;;
68126;SDS011;54931;52.098;21.006;2023-02-01T10:46:08;10.30;;;3.10;;
68126;SDS011;54931;52.098;21.006;2023-02-01T10:48:37;13.40;;;3.40;;
68126;SDS011;54931;52.098;21.006;2023-02-01T10:51:30;12.00;;;3.50;;
68126;SDS011;54931;52.098;21.006;2023-02-01T10:54:16;12.10;;;3.90;;
68126;SDS011;54931;52.098;21.006;2023-02-01T10:56:48;12.70;;;3.50;;
68126;SDS011;54931;52.098;21.006;2023-02-01T10:59:19;12.30;;;2.90;;
68126;SDS011;54931;52.098;21.006;2023-02-01T11:01:59;13.80;;;3.70;;
68126;SDS011;54931;52.098;21.006;2023-02-01T11:04:34;11.50;;;3.90;;
68126;SDS011;54931;52.098;21.006;2023-02-01T11:07:25;13.40;;;4.20;;
68126;SDS011;54931;52.098;21.006;2023-02-01T11:09:55;8.40;;;3.20;;
68126;SDS011;54931;52.098;21.006;2023-02-01T11:12:32;14.30;;;3.30;;
68126;SDS011;54931;52.098;21.006;2023-02-01T11:15:20;13.60;;;3.60;;
68126;SDS011;54931;52.098;21.006;2023-02-01T11:17:51;12.90;;;3.70;;
68126;SDS011;54931;52.098;21.006;2023-02-01T11:22:58;13.90;;;3.40;;
68126;SDS011;54931;52.098;21.006;2023-02-01T11:25:27;9.50;;;3.30;;
68126;SDS011;54931;52.098;21.006;2023-02-01T11:27:55;10.90;;;3.30;;
68126;SDS011;54931;52.098;21.006;2023-02-01T11:30:36;11.40;;;3.80;;
68126;SDS011;54931;52.098;21.006;2023-02-01T11:33:13;12.30;;;3.80;;
68126;SDS011;54931;52.098;21.006;2023-02-01T11:35:45;13.40;;;3.90;;
68126;SDS011;54931;52.098;21.006;2023-02-01T11:38:30;14.40;;;4.20;;
68126;SDS011;54931;52.098;21.006;2023-02-01T11:41:22;18.70;;;4.50;;
68126;SDS011;54931;52.098;21.006;2023-02-01T11:43:57;13.00;;;3.50;;
68126;SDS011;54931;52.098;21.006;2023-02-01T11:46:32;10.80;;;3.10;;
68126;SDS011;54931;52.098;21.006;2023-02-01T11:49:33;13.50;;;3.10;;
68126;SDS011;54931;52.098;21.006;2023-02-01T11:52:39;12.70;;;4.00;;
68126;SDS011;54931;52.098;21.006;2023-02-01T11:56:13;13.90;;;4.40;;
68126;SDS011;54931;52.098;21.006;2023-02-01T11:59:02;15.70;;;3.20;;
68126;SDS011;54931;52.098;21.006;2023-02-01T12:05:01;14.30;;;4.30;;
68126;SDS011;54931;52.098;21.006;2023-02-01T12:14:06;15.10;;;4.60;;
68126;SDS011;54931;52.098;21.006;2023-02-01T12:22:45;14.70;;;4.20;;
68126;SDS011;54931;52.098;21.006;2023-02-01T12:25:24;16.90;;;4.20;;
68126;SDS011;54931;52.098;21.006;2023-02-01T12:39:52;16.30;;;4.50;;
68126;SDS011;54931;52.098;21.006;2023-02-01T12:42:50;16.20;;;4.60;;
68126;SDS011;54931;52.098;21.006;2023-02-01T12:48:31;13.80;;;4.00;;
68126;SDS011;54931;52.098;21.006;2023-02-01T12:51:14;15.90;;;4.60;;
68126;SDS011;54931;52.098;21.006;2023-02-01T12:53:52;15.90;;;3.90;;
68126;SDS011;54931;52.098;21.006;2023-02-01T12:59:26;10.20;;;3.20;;
68126;SDS011;54931;52.098;21.006;2023-02-01T13:03:13;17.10;;;5.00;;
68126;SDS011;54931;52.098;21.006;2023-02-01T13:08:26;20.80;;;5.70;;
68126;SDS011;54931;52.098;21.006;2023-02-01T13:11:27;18.10;;;5.10;;
68126;SDS011;54931;52.098;21.006;2023-02-01T13:17:10;22.80;;;7.80;;
68126;SDS011;54931;52.098;21.006;2023-02-01T13:22:38;15.70;;;6.80;;
68126;SDS011;54931;52.098;21.006;2023-02-01T13:25:12;17.00;;;5.80;;
68126;SDS011;54931;52.098;21.006;2023-02-01T13:27:43;19.40;;;6.70;;
68126;SDS011;54931;52.098;21.006;2023-02-01T13:30:18;15.30;;;5.10;;
68126;SDS011;54931;52.098;21.006;2023-02-01T13:44:09;17.60;;;5.10;;
68126;SDS011;54931;52.098;21.006;2023-02-01T13:46:44;16.00;;;5.30;;
68126;SDS011;54931;52.098;21.006;2023-02-01T13:49:25;15.40;;;5.40;;
68126;SDS011;54931;52.098;21.006;2023-02-01T13:51:57;17.20;;;5.10;;
68126;SDS011;54931;52.098;21.006;2023-02-01T13:54:36;15.80;;;5.00;;
68126;SDS011;54931;52.098;21.006;2023-02-01T13:57:36;16.90;;;4.50;;
68126;SDS011;54931;52.098;21.006;2023-02-01T14:00:33;18.10;;;4.60;;
68126;SDS011;54931;52.098;21.006;2023-02-01T14:13:20;13.20;;;5.00;;
68126;SDS011;54931;52.098;21.006;2023-02-01T14:21:25;13.40;;;5.40;;
68126;SDS011;54931;52.098;21.006;2023-02-01T14:26:42;13.80;;;5.40;;
68126;SDS011;54931;52.098;21.006;2023-02-01T14:32:13;12.90;;;5.40;;
68126;SDS011;54931;52.098;21.006;2023-02-01T14:39:55;12.60;;;5.10;;
68126;SDS011;54931;52.098;21.006;2023-02-01T14:42:39;9.50;;;5.00;;
68126;SDS011;54931;52.098;21.006;2023-02-01T14:50:37;10.60;;;5.30;;
68126;SDS011;54931;52.098;21.006;2023-02-01T14:55:45;12.60;;;4.80;;
68126;SDS011;54931;52.098;21.006;2023-02-01T15:01:31;14.90;;;4.60;;
68126;SDS011;54931;52.098;21.006;2023-02-01T15:06:53;12.60;;;4.20;;
68126;SDS011;54931;52.098;21.006;2023-02-01T15:09:39;9.90;;;4.50;;
68126;SDS011;54931;52.098;21.006;2023-02-01T15:14:45;14.00;;;5.30;;
68126;SDS011;54931;52.098;21.006;2023-02-01T15:25:32;13.90;;;5.70;;
68126;SDS011;54931;52.098;21.006;2023-02-01T15:28:03;12.00;;;5.10;;
68126;SDS011;54931;52.098;21.006;2023-02-01T15:30:34;10.70;;;4.40;;
68126;SDS011;54931;52.098;21.006;2023-02-01T15:33:17;12.80;;;5.10;;
68126;SDS011;54931;52.098;21.006;2023-02-01T15:35:48;9.00;;;4.90;;
68126;SDS011;54931;52.098;21.006;2023-02-01T15:46:32;13.30;;;6.30;;
68126;SDS011;54931;52.098;21.006;2023-02-01T15:49:19;12.80;;;6.50;;
68126;SDS011;54931;52.098;21.006;2023-02-01T15:51:53;11.20;;;6.10;;
68126;SDS011;54931;52.098;21.006;2023-02-01T15:54:28;14.00;;;6.20;;
68126;SDS011;54931;52.098;21.006;2023-02-01T15:57:01;10.10;;;5.40;;
68126;SDS011;54931;52.098;21.006;2023-02-01T15:59:50;13.00;;;5.70;;
68126;SDS011;54931;52.098;21.006;2023-02-01T16:02:34;10.90;;;6.30;;
68126;SDS011;54931;52.098;21.006;2023-02-01T16:05:34;13.00;;;6.20;;
68126;SDS011;54931;52.098;21.006;2023-02-01T16:08:13;13.30;;;5.70;;
68126;SDS011;54931;52.098;21.006;2023-02-01T16:10:47;10.30;;;5.10;;
68126;SDS011;54931;52.098;21.006;2023-02-01T16:13:16;10.00;;;5.50;;
68126;SDS011;54931;52.098;21.006;2023-02-01T16:15:45;10.90;;;5.20;;
68126;SDS011;54931;52.098;21.006;2023-02-01T16:18:14;11.40;;;4.70;;
68126;SDS011;54931;52.098;21.006;2023-02-01T16:20:43;11.80;;;5.90;;
68126;SDS011;54931;52.098;21.006;2023-02-01T16:23:11;9.80;;;5.10;;
68126;SDS011;54931;52.098;21.006;2023-02-01T16:25:39;11.50;;;5.70;;
68126;SDS011;54931;52.098;21.006;2023-02-01T16:28:07;8.90;;;3.70;;
68126;SDS011;54931;52.098;21.006;2023-02-01T16:30:35;12.90;;;5.40;;
68126;SDS011;54931;52.098;21.006;2023-02-01T16:33:05;11.90;;;5.70;;
68126;SDS011;54931;52.098;21.006;2023-02-01T16:35:38;14.10;;;4.90;;
68126;SDS011;54931;52.098;21.006;2023-02-01T16:38:14;13.80;;;6.40;;
68126;SDS011;54931;52.098;21.006;2023-02-01T16:40:46;15.40;;;7.90;;
68126;SDS011;54931;52.098;21.006;2023-02-01T16:43:17;29.30;;;11.10;;
68126;SDS011;54931;52.098;21.006;2023-02-01T16:45:48;18.80;;;7.80;;
68126;SDS011;54931;52.098;21.006;2023-02-01T16:48:26;16.10;;;7.80;;
68126;SDS011;54931;52.098;21.006;2023-02-01T16:51:09;16.80;;;5.40;;
68126;SDS011;54931;52.098;21.006;2023-02-01T16:53:40;11.40;;;5.50;;
68126;SDS011;54931;52.098;21.006;2023-02-01T16:56:17;11.30;;;5.30;;
68126;SDS011;54931;52.098;21.006;2023-02-01T16:58:46;11.60;;;6.40;;
68126;SDS011;54931;52.098;21.006;2023-02-01T17:01:16;11.00;;;5.40;;
68126;SDS011;54931;52.098;21.006;2023-02-01T17:03:46;14.20;;;6.10;;
68126;SDS011;54931;52.098;21.006;2023-02-01T17:06:19;13.70;;;5.70;;
68126;SDS011;54931;52.098;21.006;2023-02-01T17:08:54;14.40;;;5.70;;
68126;SDS011;54931;52.098;21.006;2023-02-01T17:11:26;10.60;;;5.70;;
68126;SDS011;54931;52.098;21.006;2023-02-01T17:14:04;11.80;;;5.40;;
68126;SDS011;54931;52.098;21.006;2023-02-01T17:19:16;15.10;;;7.40;;
68126;SDS011;54931;52.098;21.006;2023-02-01T17:21:52;15.80;;;7.20;;
68126;SDS011;54931;52.098;21.006;2023-02-01T17:24:25;18.80;;;7.30;;
68126;SDS011;54931;52.098;21.006;2023-02-01T17:26:55;19.20;;;8.10;;
68126;SDS011;54931;52.098;21.006;2023-02-01T17:29:23;14.60;;;6.50;;
68126;SDS011;54931;52.098;21.006;2023-02-01T17:31:53;14.90;;;6.70;;
68126;SDS011;54931;52.098;21.006;2023-02-01T17:34:22;17.60;;;7.50;;
68126;SDS011;54931;52.098;21.006;2023-02-01T17:36:50;18.10;;;8.10;;
68126;SDS011;54931;52.098;21.006;2023-02-01T17:39:18;16.20;;;8.10;;